sensor_id;sensor_type;location;lat;lon;timestamp;P1;durP1;ratioP1;P2;durP2;ratioP2
31128;SDS011;17777;48.770;8.944;2023-06-14T00:01:57;2.10;;;1.67;;
31128;SDS011;17777;48.770;8.944;2023-06-14T00:04:23;3.17;;;1.70;;
31128;SDS011;17777;48.770;8.944;2023-06-14T00:06:50;1.80;;;1.45;;
31128;SDS011;17777;48.770;8.944;2023-06-14T00:09:16;1.73;;;1.45;;
31128;SDS011;17777;48.770;8.944;2023-06-14T00:11:45;1.60;;;1.50;;
31128;SDS011;17777;48.770;8.944;2023-06-14T00:14:10;1.77;;;1.40;;
31128;SDS011;17777;48.770;8.944;2023-06-14T00:16:36;2.33;;;1.60;;
31128;SDS011;17777;48.770;8.944;2023-06-14T00:19:03;2.90;;;1.52;;
31128;SDS011;17777;48.770;8.944;2023-06-14T00:21:30;2.95;;;1.83;;
31128;SDS011;17777;48.770;8.944;2023-06-14T00:23:59;2.42;;;1.80;;
31128;SDS011;17777;48.770;8.944;2023-06-14T00:26:26;2.15;;;1.77;;
31128;SDS011;17777;48.770;8.944;2023-06-14T00:28:53;2.17;;;1.73;;
31128;SDS011;17777;48.770;8.944;2023-06-14T00:31:19;2.10;;;1.77;;
31128;SDS011;17777;48.770;8.944;2023-06-14T00:33:46;1.92;;;1.52;;
31128;SDS011;17777;48.770;8.944;2023-06-14T00:36:11;2.30;;;1.60;;
31128;SDS011;17777;48.770;8.944;2023-06-14T00:38:37;3.17;;;1.60;;
31128;SDS011;17777;48.770;8.944;2023-06-14T00:41:03;2.03;;;1.67;;
31128;SDS011;17777;48.770;8.944;2023-06-14T00:43:29;1.77;;;1.52;;
31128;SDS011;17777;48.770;8.944;2023-06-14T00:45:55;2.00;;;1.58;;
31128;SDS011;17777;48.770;8.944;2023-06-14T00:48:21;4.72;;;1.73;;
31128;SDS011;17777;48.770;8.944;2023-06-14T00:50:47;3.38;;;1.88;;
31128;SDS011;17777;48.770;8.944;2023-06-14T00:53:15;1.73;;;1.55;;
31128;SDS011;17777;48.770;8.944;2023-06-14T00:55:45;2.00;;;1.77;;
31128;SDS011;17777;48.770;8.944;2023-06-14T00:58:15;1.90;;;1.70;;
31128;SDS011;17777;48.770;8.944;2023-06-14T01:00:42;2.10;;;1.77;;
31128;SDS011;17777;48.770;8.944;2023-06-14T01:03:07;3.10;;;2.08;;
31128;SDS011;17777;48.770;8.944;2023-06-14T01:05:37;3.70;;;2.05;;
31128;SDS011;17777;48.770;8.944;2023-06-14T01:13:38;2.55;;;1.80;;
31128;SDS011;17777;48.770;8.944;2023-06-14T01:16:07;1.90;;;1.73;;
31128;SDS011;17777;48.770;8.944;2023-06-14T01:18:34;3.15;;;2.15;;
31128;SDS011;17777;48.770;8.944;2023-06-14T01:21:01;3.03;;;1.70;;
31128;SDS011;17777;48.770;8.944;2023-06-14T01:23:30;1.80;;;1.70;;
31128;SDS011;17777;48.770;8.944;2023-06-14T01:25:58;2.03;;;1.83;;
31128;SDS011;17777;48.770;8.944;2023-06-14T01:28:30;2.95;;;1.80;;
31128;SDS011;17777;48.770;8.944;2023-06-14T01:30:59;1.90;;;1.67;;
31128;SDS011;17777;48.770;8.944;2023-06-14T01:33:32;2.50;;;2.10;;
31128;SDS011;17777;48.770;8.944;2023-06-14T01:36:00;2.40;;;1.52;;
31128;SDS011;17777;48.770;8.944;2023-06-14T01:38:29;2.33;;;1.88;;
31128;SDS011;17777;48.770;8.944;2023-06-14T01:40:57;3.30;;;1.90;;
31128;SDS011;17777;48.770;8.944;2023-06-14T01:43:25;2.88;;;1.83;;
31128;SDS011;17777;48.770;8.944;2023-06-14T01:45:52;5.20;;;1.73;;
31128;SDS011;17777;48.770;8.944;2023-06-14T01:48:19;2.80;;;1.90;;
31128;SDS011;17777;48.770;8.944;2023-06-14T01:50:47;1.77;;;1.65;;
31128;SDS011;17777;48.770;8.944;2023-06-14T01:53:19;1.98;;;1.77;;
31128;SDS011;17777;48.770;8.944;2023-06-14T01:55:45;2.10;;;1.90;;
31128;SDS011;17777;48.770;8.944;2023-06-14T01:58:14;2.00;;;1.60;;
31128;SDS011;17777;48.770;8.944;2023-06-14T02:00:44;2.88;;;2.10;;
31128;SDS011;17777;48.770;8.944;2023-06-14T02:03:10;3.88;;;2.00;;
31128;SDS011;17777;48.770;8.944;2023-06-14T02:05:37;2.60;;;2.00;;
31128;SDS011;17777;48.770;8.944;2023-06-14T02:08:04;4.30;;;2.00;;
31128;SDS011;17777;48.770;8.944;2023-06-14T02:10:31;4.38;;;1.80;;
31128;SDS011;17777;48.770;8.944;2023-06-14T02:12:56;2.47;;;2.00;;
31128;SDS011;17777;48.770;8.944;2023-06-14T02:15:22;2.00;;;1.80;;
31128;SDS011;17777;48.770;8.944;2023-06-14T02:17:48;1.95;;;1.70;;
31128;SDS011;17777;48.770;8.944;2023-06-14T02:20:16;2.80;;;2.08;;
31128;SDS011;17777;48.770;8.944;2023-06-14T02:22:42;2.20;;;1.65;;
31128;SDS011;17777;48.770;8.944;2023-06-14T02:25:08;2.38;;;1.67;;
31128;SDS011;17777;48.770;8.944;2023-06-14T02:27:34;1.88;;;1.70;;
31128;SDS011;17777;48.770;8.944;2023-06-14T02:30:02;3.17;;;2.00;;
31128;SDS011;17777;48.770;8.944;2023-06-14T02:32:31;5.25;;;1.92;;
31128;SDS011;17777;48.770;8.944;2023-06-14T02:34:59;3.05;;;2.10;;
31128;SDS011;17777;48.770;8.944;2023-06-14T02:37:24;3.10;;;2.00;;
31128;SDS011;17777;48.770;8.944;2023-06-14T02:39:52;2.38;;;2.00;;
31128;SDS011;17777;48.770;8.944;2023-06-14T02:42:17;3.78;;;2.15;;
31128;SDS011;17777;48.770;8.944;2023-06-14T02:44:43;3.40;;;2.10;;
31128;SDS011;17777;48.770;8.944;2023-06-14T02:47:11;2.88;;;1.70;;
31128;SDS011;17777;48.770;8.944;2023-06-14T02:49:37;2.72;;;2.20;;
31128;SDS011;17777;48.770;8.944;2023-06-14T02:52:03;5.57;;;2.28;;
31128;SDS011;17777;48.770;8.944;2023-06-14T02:54:30;1.98;;;1.77;;
31128;SDS011;17777;48.770;8.944;2023-06-14T02:56:57;4.25;;;2.05;;
31128;SDS011;17777;48.770;8.944;2023-06-14T02:59:23;3.63;;;2.17;;
31128;SDS011;17777;48.770;8.944;2023-06-14T03:01:52;2.45;;;1.98;;
31128;SDS011;17777;48.770;8.944;2023-06-14T03:04:18;3.03;;;1.92;;
31128;SDS011;17777;48.770;8.944;2023-06-14T03:06:44;2.97;;;1.88;;
31128;SDS011;17777;48.770;8.944;2023-06-14T03:09:16;1.98;;;1.73;;
31128;SDS011;17777;48.770;8.944;2023-06-14T03:11:42;2.10;;;1.70;;
31128;SDS011;17777;48.770;8.944;2023-06-14T03:14:09;2.13;;;1.80;;
31128;SDS011;17777;48.770;8.944;2023-06-14T03:16:37;2.28;;;1.90;;
31128;SDS011;17777;48.770;8.944;2023-06-14T03:19:03;2.20;;;1.65;;
31128;SDS011;17777;48.770;8.944;2023-06-14T03:21:31;2.25;;;1.80;;
31128;SDS011;17777;48.770;8.944;2023-06-14T03:23:59;3.63;;;1.80;;
31128;SDS011;17777;48.770;8.944;2023-06-14T03:26:25;2.03;;;1.83;;
31128;SDS011;17777;48.770;8.944;2023-06-14T03:28:54;3.88;;;1.80;;
31128;SDS011;17777;48.770;8.944;2023-06-14T03:31:21;2.50;;;1.85;;
31128;SDS011;17777;48.770;8.944;2023-06-14T03:33:49;3.88;;;2.20;;
31128;SDS011;17777;48.770;8.944;2023-06-14T03:36:15;2.47;;;1.95;;
31128;SDS011;17777;48.770;8.944;2023-06-14T03:38:43;2.60;;;2.00;;
31128;SDS011;17777;48.770;8.944;2023-06-14T03:41:09;2.60;;;1.80;;
31128;SDS011;17777;48.770;8.944;2023-06-14T03:43:35;2.03;;;1.80;;
31128;SDS011;17777;48.770;8.944;2023-06-14T03:46:02;3.65;;;2.13;;
31128;SDS011;17777;48.770;8.944;2023-06-14T03:48:30;2.90;;;2.28;;
31128;SDS011;17777;48.770;8.944;2023-06-14T03:50:55;3.17;;;2.13;;
31128;SDS011;17777;48.770;8.944;2023-06-14T03:53:21;2.65;;;1.92;;
31128;SDS011;17777;48.770;8.944;2023-06-14T03:55:53;4.80;;;2.42;;
31128;SDS011;17777;48.770;8.944;2023-06-14T03:58:22;3.47;;;2.38;;
31128;SDS011;17777;48.770;8.944;2023-06-14T04:00:48;3.33;;;2.05;;
31128;SDS011;17777;48.770;8.944;2023-06-14T04:03:14;4.80;;;2.28;;
31128;SDS011;17777;48.770;8.944;2023-06-14T04:05:41;2.22;;;2.00;;
31128;SDS011;17777;48.770;8.944;2023-06-14T04:08:10;3.92;;;2.30;;
31128;SDS011;17777;48.770;8.944;2023-06-14T04:10:39;2.65;;;1.92;;
31128;SDS011;17777;48.770;8.944;2023-06-14T04:13:06;3.05;;;2.40;;
31128;SDS011;17777;48.770;8.944;2023-06-14T04:15:32;2.67;;;1.73;;
31128;SDS011;17777;48.770;8.944;2023-06-14T04:17:59;5.53;;;2.30;;
31128;SDS011;17777;48.770;8.944;2023-06-14T04:20:25;2.22;;;2.03;;
31128;SDS011;17777;48.770;8.944;2023-06-14T04:22:51;2.20;;;2.00;;
31128;SDS011;17777;48.770;8.944;2023-06-14T04:25:18;3.22;;;2.20;;
31128;SDS011;17777;48.770;8.944;2023-06-14T04:27:44;2.75;;;2.05;;
31128;SDS011;17777;48.770;8.944;2023-06-14T04:30:10;2.95;;;2.20;;
31128;SDS011;17777;48.770;8.944;2023-06-14T04:32:42;2.70;;;2.13;;
31128;SDS011;17777;48.770;8.944;2023-06-14T04:35:11;2.95;;;2.20;;
31128;SDS011;17777;48.770;8.944;2023-06-14T04:37:39;2.65;;;1.98;;
31128;SDS011;17777;48.770;8.944;2023-06-14T04:40:06;3.20;;;2.35;;
31128;SDS011;17777;48.770;8.944;2023-06-14T04:42:34;2.85;;;2.15;;
31128;SDS011;17777;48.770;8.944;2023-06-14T04:45:04;4.20;;;2.63;;
31128;SDS011;17777;48.770;8.944;2023-06-14T04:47:32;7.40;;;2.92;;
31128;SDS011;17777;48.770;8.944;2023-06-14T04:49:59;4.20;;;2.10;;
31128;SDS011;17777;48.770;8.944;2023-06-14T04:52:28;2.78;;;2.22;;
31128;SDS011;17777;48.770;8.944;2023-06-14T04:54:55;3.55;;;2.25;;
31128;SDS011;17777;48.770;8.944;2023-06-14T04:57:22;4.75;;;2.28;;
31128;SDS011;17777;48.770;8.944;2023-06-14T04:59:51;3.85;;;2.15;;
31128;SDS011;17777;48.770;8.944;2023-06-14T05:02:23;3.35;;;2.47;;
31128;SDS011;17777;48.770;8.944;2023-06-14T05:04:50;2.80;;;2.30;;
31128;SDS011;17777;48.770;8.944;2023-06-14T05:07:17;2.30;;;2.10;;
31128;SDS011;17777;48.770;8.944;2023-06-14T05:09:43;5.43;;;2.47;;
31128;SDS011;17777;48.770;8.944;2023-06-14T05:12:10;2.97;;;2.20;;
31128;SDS011;17777;48.770;8.944;2023-06-14T05:14:36;5.25;;;2.80;;
31128;SDS011;17777;48.770;8.944;2023-06-14T05:17:04;2.95;;;2.42;;
31128;SDS011;17777;48.770;8.944;2023-06-14T05:19:30;3.22;;;2.28;;
31128;SDS011;17777;48.770;8.944;2023-06-14T05:21:56;4.32;;;2.35;;
31128;SDS011;17777;48.770;8.944;2023-06-14T05:24:22;3.63;;;2.33;;
31128;SDS011;17777;48.770;8.944;2023-06-14T05:26:48;5.25;;;2.42;;
31128;SDS011;17777;48.770;8.944;2023-06-14T05:29:14;6.13;;;2.17;;
31128;SDS011;17777;48.770;8.944;2023-06-14T05:31:40;2.88;;;2.38;;
31128;SDS011;17777;48.770;8.944;2023-06-14T05:34:05;3.00;;;2.70;;
31128;SDS011;17777;48.770;8.944;2023-06-14T05:36:31;4.88;;;2.70;;
31128;SDS011;17777;48.770;8.944;2023-06-14T05:38:57;5.22;;;2.60;;
31128;SDS011;17777;48.770;8.944;2023-06-14T05:41:28;3.22;;;2.45;;
31128;SDS011;17777;48.770;8.944;2023-06-14T05:43:55;4.78;;;2.22;;
31128;SDS011;17777;48.770;8.944;2023-06-14T05:46:21;2.97;;;2.10;;
31128;SDS011;17777;48.770;8.944;2023-06-14T05:48:50;2.47;;;2.28;;
31128;SDS011;17777;48.770;8.944;2023-06-14T05:51:17;2.90;;;2.45;;
31128;SDS011;17777;48.770;8.944;2023-06-14T05:53:47;2.65;;;2.13;;
31128;SDS011;17777;48.770;8.944;2023-06-14T05:56:14;3.63;;;2.20;;
31128;SDS011;17777;48.770;8.944;2023-06-14T05:58:40;3.83;;;1.90;;
31128;SDS011;17777;48.770;8.944;2023-06-14T06:01:06;2.63;;;1.98;;
31128;SDS011;17777;48.770;8.944;2023-06-14T06:03:32;4.50;;;2.20;;
31128;SDS011;17777;48.770;8.944;2023-06-14T06:05:59;3.25;;;1.90;;
31128;SDS011;17777;48.770;8.944;2023-06-14T06:08:25;2.55;;;2.15;;
31128;SDS011;17777;48.770;8.944;2023-06-14T06:10:55;2.97;;;2.15;;
31128;SDS011;17777;48.770;8.944;2023-06-14T06:13:21;2.85;;;2.38;;
31128;SDS011;17777;48.770;8.944;2023-06-14T06:15:47;4.55;;;2.40;;
31128;SDS011;17777;48.770;8.944;2023-06-14T06:18:13;4.07;;;2.55;;
31128;SDS011;17777;48.770;8.944;2023-06-14T06:20:39;3.13;;;2.17;;
31128;SDS011;17777;48.770;8.944;2023-06-14T06:23:05;2.60;;;2.28;;
31128;SDS011;17777;48.770;8.944;2023-06-14T06:25:30;6.70;;;2.50;;
31128;SDS011;17777;48.770;8.944;2023-06-14T06:27:56;3.78;;;2.22;;
31128;SDS011;17777;48.770;8.944;2023-06-14T06:30:23;3.47;;;2.40;;
31128;SDS011;17777;48.770;8.944;2023-06-14T06:32:50;4.22;;;2.58;;
31128;SDS011;17777;48.770;8.944;2023-06-14T06:35:16;2.83;;;2.53;;
31128;SDS011;17777;48.770;8.944;2023-06-14T06:37:42;4.82;;;2.40;;
31128;SDS011;17777;48.770;8.944;2023-06-14T06:40:08;4.20;;;2.17;;
31128;SDS011;17777;48.770;8.944;2023-06-14T06:42:35;5.15;;;1.83;;
31128;SDS011;17777;48.770;8.944;2023-06-14T06:45:04;2.17;;;1.98;;
31128;SDS011;17777;48.770;8.944;2023-06-14T06:47:31;3.97;;;2.10;;
31128;SDS011;17777;48.770;8.944;2023-06-14T06:49:57;2.22;;;1.80;;
31128;SDS011;17777;48.770;8.944;2023-06-14T06:52:22;2.65;;;2.38;;
31128;SDS011;17777;48.770;8.944;2023-06-14T06:54:48;7.10;;;2.30;;
31128;SDS011;17777;48.770;8.944;2023-06-14T06:57:15;2.10;;;1.88;;
31128;SDS011;17777;48.770;8.944;2023-06-14T06:59:41;2.72;;;2.30;;
31128;SDS011;17777;48.770;8.944;2023-06-14T07:02:07;3.78;;;2.40;;
31128;SDS011;17777;48.770;8.944;2023-06-14T07:04:33;3.90;;;2.00;;
31128;SDS011;17777;48.770;8.944;2023-06-14T07:06:59;4.18;;;1.77;;
31128;SDS011;17777;48.770;8.944;2023-06-14T07:09:24;4.07;;;2.22;;
31128;SDS011;17777;48.770;8.944;2023-06-14T07:11:50;5.72;;;1.98;;
31128;SDS011;17777;48.770;8.944;2023-06-14T07:14:16;3.05;;;2.35;;
31128;SDS011;17777;48.770;8.944;2023-06-14T07:16:42;3.35;;;2.10;;
31128;SDS011;17777;48.770;8.944;2023-06-14T07:19:08;2.70;;;2.08;;
31128;SDS011;17777;48.770;8.944;2023-06-14T07:21:35;4.05;;;2.50;;
31128;SDS011;17777;48.770;8.944;2023-06-14T07:24:05;5.32;;;2.40;;
31128;SDS011;17777;48.770;8.944;2023-06-14T07:26:34;2.55;;;2.03;;
31128;SDS011;17777;48.770;8.944;2023-06-14T07:29:00;2.13;;;1.90;;
31128;SDS011;17777;48.770;8.944;2023-06-14T07:31:27;3.92;;;2.08;;
31128;SDS011;17777;48.770;8.944;2023-06-14T07:33:53;2.10;;;1.80;;
31128;SDS011;17777;48.770;8.944;2023-06-14T07:36:19;3.05;;;2.30;;
31128;SDS011;17777;48.770;8.944;2023-06-14T07:38:45;3.25;;;2.10;;
31128;SDS011;17777;48.770;8.944;2023-06-14T07:41:11;2.88;;;1.73;;
31128;SDS011;17777;48.770;8.944;2023-06-14T07:43:37;3.08;;;2.25;;
31128;SDS011;17777;48.770;8.944;2023-06-14T07:46:03;1.55;;;1.45;;
31128;SDS011;17777;48.770;8.944;2023-06-14T07:48:29;2.78;;;2.10;;
31128;SDS011;17777;48.770;8.944;2023-06-14T07:50:55;4.15;;;2.15;;
31128;SDS011;17777;48.770;8.944;2023-06-14T07:53:21;2.83;;;2.30;;
31128;SDS011;17777;48.770;8.944;2023-06-14T07:55:47;2.20;;;2.00;;
31128;SDS011;17777;48.770;8.944;2023-06-14T07:58:13;1.88;;;1.73;;
31128;SDS011;17777;48.770;8.944;2023-06-14T08:00:40;3.33;;;2.10;;
31128;SDS011;17777;48.770;8.944;2023-06-14T08:03:06;2.28;;;1.88;;
31128;SDS011;17777;48.770;8.944;2023-06-14T08:05:31;2.53;;;2.00;;
31128;SDS011;17777;48.770;8.944;2023-06-14T08:07:57;5.72;;;2.40;;
31128;SDS011;17777;48.770;8.944;2023-06-14T08:10:23;10.20;;;2.00;;
31128;SDS011;17777;48.770;8.944;2023-06-14T08:12:49;5.57;;;2.03;;
31128;SDS011;17777;48.770;8.944;2023-06-14T08:15:15;4.30;;;2.13;;
31128;SDS011;17777;48.770;8.944;2023-06-14T08:17:42;2.35;;;1.80;;
31128;SDS011;17777;48.770;8.944;2023-06-14T08:20:09;2.20;;;1.83;;
31128;SDS011;17777;48.770;8.944;2023-06-14T08:22:35;2.63;;;2.05;;
31128;SDS011;17777;48.770;8.944;2023-06-14T08:25:02;4.40;;;1.90;;
31128;SDS011;17777;48.770;8.944;2023-06-14T08:27:29;2.22;;;2.00;;
31128;SDS011;17777;48.770;8.944;2023-06-14T08:29:55;4.07;;;1.77;;
31128;SDS011;17777;48.770;8.944;2023-06-14T08:32:21;3.67;;;1.88;;
31128;SDS011;17777;48.770;8.944;2023-06-14T08:34:47;2.67;;;2.08;;
31128;SDS011;17777;48.770;8.944;2023-06-14T08:37:13;2.10;;;1.90;;
31128;SDS011;17777;48.770;8.944;2023-06-14T08:39:39;2.45;;;1.95;;
31128;SDS011;17777;48.770;8.944;2023-06-14T08:42:05;5.78;;;2.20;;
31128;SDS011;17777;48.770;8.944;2023-06-14T08:44:34;6.97;;;2.30;;
31128;SDS011;17777;48.770;8.944;2023-06-14T08:47:00;5.10;;;2.08;;
31128;SDS011;17777;48.770;8.944;2023-06-14T08:49:26;7.07;;;2.00;;
31128;SDS011;17777;48.770;8.944;2023-06-14T08:51:54;2.90;;;2.05;;
31128;SDS011;17777;48.770;8.944;2023-06-14T08:54:27;2.63;;;1.80;;
31128;SDS011;17777;48.770;8.944;2023-06-14T08:56:59;2.42;;;1.63;;
31128;SDS011;17777;48.770;8.944;2023-06-14T08:59:25;6.70;;;2.58;;
31128;SDS011;17777;48.770;8.944;2023-06-14T09:01:52;3.53;;;2.00;;
31128;SDS011;17777;48.770;8.944;2023-06-14T09:04:22;2.47;;;1.90;;
31128;SDS011;17777;48.770;8.944;2023-06-14T09:06:54;3.00;;;2.22;;
31128;SDS011;17777;48.770;8.944;2023-06-14T09:09:21;2.92;;;1.90;;
31128;SDS011;17777;48.770;8.944;2023-06-14T09:11:53;3.22;;;1.63;;
31128;SDS011;17777;48.770;8.944;2023-06-14T09:14:21;5.38;;;2.20;;
31128;SDS011;17777;48.770;8.944;2023-06-14T09:16:52;2.65;;;2.20;;
31128;SDS011;17777;48.770;8.944;2023-06-14T09:19:25;2.63;;;2.30;;
31128;SDS011;17777;48.770;8.944;2023-06-14T09:21:52;2.42;;;2.20;;
31128;SDS011;17777;48.770;8.944;2023-06-14T09:24:18;1.60;;;1.50;;
31128;SDS011;17777;48.770;8.944;2023-06-14T09:26:48;2.10;;;1.90;;
31128;SDS011;17777;48.770;8.944;2023-06-14T09:29:16;3.25;;;2.05;;
31128;SDS011;17777;48.770;8.944;2023-06-14T09:31:45;5.88;;;2.42;;
31128;SDS011;17777;48.770;8.944;2023-06-14T09:34:12;3.70;;;1.98;;
31128;SDS011;17777;48.770;8.944;2023-06-14T09:36:38;2.45;;;2.25;;
31128;SDS011;17777;48.770;8.944;2023-06-14T09:39:07;3.35;;;1.88;;
31128;SDS011;17777;48.770;8.944;2023-06-14T09:41:34;2.13;;;1.92;;
31128;SDS011;17777;48.770;8.944;2023-06-14T09:44:01;3.42;;;1.90;;
31128;SDS011;17777;48.770;8.944;2023-06-14T09:46:30;2.28;;;2.05;;
31128;SDS011;17777;48.770;8.944;2023-06-14T09:48:56;2.38;;;1.35;;
31128;SDS011;17777;48.770;8.944;2023-06-14T09:51:23;2.22;;;1.75;;
31128;SDS011;17777;48.770;8.944;2023-06-14T09:53:49;3.42;;;1.95;;
31128;SDS011;17777;48.770;8.944;2023-06-14T09:56:17;2.30;;;2.10;;
31128;SDS011;17777;48.770;8.944;2023-06-14T09:58:51;2.33;;;1.70;;
31128;SDS011;17777;48.770;8.944;2023-06-14T10:01:21;2.47;;;1.80;;
31128;SDS011;17777;48.770;8.944;2023-06-14T10:03:55;2.42;;;2.03;;
31128;SDS011;17777;48.770;8.944;2023-06-14T10:06:28;3.22;;;1.65;;
31128;SDS011;17777;48.770;8.944;2023-06-14T10:08:58;3.65;;;1.85;;
31128;SDS011;17777;48.770;8.944;2023-06-14T10:11:28;2.90;;;1.48;;
31128;SDS011;17777;48.770;8.944;2023-06-14T10:13:54;3.67;;;1.80;;
31128;SDS011;17777;48.770;8.944;2023-06-14T10:21:33;3.72;;;1.60;;
31128;SDS011;17777;48.770;8.944;2023-06-14T10:24:23;3.53;;;1.70;;
31128;SDS011;17777;48.770;8.944;2023-06-14T10:27:05;2.10;;;1.55;;
31128;SDS011;17777;48.770;8.944;2023-06-14T10:29:36;2.17;;;1.60;;
31128;SDS011;17777;48.770;8.944;2023-06-14T10:32:27;1.80;;;1.63;;
31128;SDS011;17777;48.770;8.944;2023-06-14T10:34:54;2.65;;;1.92;;
31128;SDS011;17777;48.770;8.944;2023-06-14T10:37:29;2.72;;;1.80;;
31128;SDS011;17777;48.770;8.944;2023-06-14T10:39:55;2.35;;;1.80;;
31128;SDS011;17777;48.770;8.944;2023-06-14T10:42:21;3.72;;;1.83;;
31128;SDS011;17777;48.770;8.944;2023-06-14T10:44:54;3.72;;;1.50;;
31128;SDS011;17777;48.770;8.944;2023-06-14T10:47:31;2.13;;;1.90;;
31128;SDS011;17777;48.770;8.944;2023-06-14T10:55:10;3.95;;;1.52;;
31128;SDS011;17777;48.770;8.944;2023-06-14T11:00:11;1.58;;;1.48;;
31128;SDS011;17777;48.770;8.944;2023-06-14T11:05:54;2.53;;;1.52;;
31128;SDS011;17777;48.770;8.944;2023-06-14T11:11:32;4.30;;;1.70;;
31128;SDS011;17777;48.770;8.944;2023-06-14T11:14:01;2.83;;;1.60;;
31128;SDS011;17777;48.770;8.944;2023-06-14T11:16:27;3.05;;;1.58;;
31128;SDS011;17777;48.770;8.944;2023-06-14T11:18:53;2.38;;;1.60;;
31128;SDS011;17777;48.770;8.944;2023-06-14T11:21:20;1.98;;;1.65;;
31128;SDS011;17777;48.770;8.944;2023-06-14T11:23:52;1.60;;;1.42;;
31128;SDS011;17777;48.770;8.944;2023-06-14T11:26:26;1.65;;;1.42;;
31128;SDS011;17777;48.770;8.944;2023-06-14T11:28:59;2.78;;;1.92;;
31128;SDS011;17777;48.770;8.944;2023-06-14T11:31:29;2.03;;;1.60;;
31128;SDS011;17777;48.770;8.944;2023-06-14T11:33:58;1.52;;;1.42;;
31128;SDS011;17777;48.770;8.944;2023-06-14T11:36:33;1.40;;;1.30;;
31128;SDS011;17777;48.770;8.944;2023-06-14T11:39:00;1.85;;;1.48;;
31128;SDS011;17777;48.770;8.944;2023-06-14T11:41:36;2.78;;;1.52;;
31128;SDS011;17777;48.770;8.944;2023-06-14T11:44:05;1.70;;;1.60;;
31128;SDS011;17777;48.770;8.944;2023-06-14T11:46:32;2.03;;;1.52;;
31128;SDS011;17777;48.770;8.944;2023-06-14T11:48:58;2.05;;;1.63;;
31128;SDS011;17777;48.770;8.944;2023-06-14T11:51:28;3.05;;;1.58;;
31128;SDS011;17777;48.770;8.944;2023-06-14T11:53:57;1.83;;;1.30;;
31128;SDS011;17777;48.770;8.944;2023-06-14T11:56:23;1.50;;;1.35;;
31128;SDS011;17777;48.770;8.944;2023-06-14T11:58:50;1.50;;;1.40;;
31128;SDS011;17777;48.770;8.944;2023-06-14T12:01:18;1.40;;;1.30;;
31128;SDS011;17777;48.770;8.944;2023-06-14T12:03:47;2.05;;;1.40;;
31128;SDS011;17777;48.770;8.944;2023-06-14T12:06:15;1.55;;;1.40;;
31128;SDS011;17777;48.770;8.944;2023-06-14T12:08:43;2.28;;;1.70;;
31128;SDS011;17777;48.770;8.944;2023-06-14T12:11:11;1.40;;;1.20;;
31128;SDS011;17777;48.770;8.944;2023-06-14T12:13:41;3.20;;;1.25;;
31128;SDS011;17777;48.770;8.944;2023-06-14T12:16:08;1.75;;;1.13;;
31128;SDS011;17777;48.770;8.944;2023-06-14T12:18:35;1.63;;;1.45;;
31128;SDS011;17777;48.770;8.944;2023-06-14T12:21:06;4.90;;;1.50;;
31128;SDS011;17777;48.770;8.944;2023-06-14T12:26:15;2.30;;;1.23;;
31128;SDS011;17777;48.770;8.944;2023-06-14T12:28:44;3.55;;;1.60;;
31128;SDS011;17777;48.770;8.944;2023-06-14T12:31:12;2.35;;;1.73;;
31128;SDS011;17777;48.770;8.944;2023-06-14T12:33:42;2.13;;;1.27;;
31128;SDS011;17777;48.770;8.944;2023-06-14T12:36:08;1.98;;;1.30;;
31128;SDS011;17777;48.770;8.944;2023-06-14T12:38:35;1.40;;;1.30;;
31128;SDS011;17777;48.770;8.944;2023-06-14T12:41:02;1.45;;;1.35;;
31128;SDS011;17777;48.770;8.944;2023-06-14T12:43:29;1.90;;;1.45;;
31128;SDS011;17777;48.770;8.944;2023-06-14T12:45:54;1.58;;;1.48;;
31128;SDS011;17777;48.770;8.944;2023-06-14T12:48:20;1.80;;;1.40;;
31128;SDS011;17777;48.770;8.944;2023-06-14T12:50:47;1.90;;;1.50;;
31128;SDS011;17777;48.770;8.944;2023-06-14T12:53:13;4.15;;;1.60;;
31128;SDS011;17777;48.770;8.944;2023-06-14T12:55:39;2.70;;;1.40;;
31128;SDS011;17777;48.770;8.944;2023-06-14T12:58:05;1.73;;;1.30;;
31128;SDS011;17777;48.770;8.944;2023-06-14T13:00:31;1.50;;;1.40;;
31128;SDS011;17777;48.770;8.944;2023-06-14T13:02:57;1.90;;;1.52;;
31128;SDS011;17777;48.770;8.944;2023-06-14T13:05:23;2.92;;;1.75;;
31128;SDS011;17777;48.770;8.944;2023-06-14T13:07:49;1.60;;;1.50;;
31128;SDS011;17777;48.770;8.944;2023-06-14T13:10:16;1.70;;;1.45;;
31128;SDS011;17777;48.770;8.944;2023-06-14T13:12:42;2.53;;;1.27;;
31128;SDS011;17777;48.770;8.944;2023-06-14T13:15:08;3.10;;;1.60;;
31128;SDS011;17777;48.770;8.944;2023-06-14T13:17:35;1.75;;;1.65;;
31128;SDS011;17777;48.770;8.944;2023-06-14T13:20:05;1.98;;;1.40;;
31128;SDS011;17777;48.770;8.944;2023-06-14T13:22:32;2.50;;;1.20;;
31128;SDS011;17777;48.770;8.944;2023-06-14T13:24:58;1.83;;;1.73;;
31128;SDS011;17777;48.770;8.944;2023-06-14T13:27:25;3.13;;;1.65;;
31128;SDS011;17777;48.770;8.944;2023-06-14T13:29:52;1.52;;;1.42;;
31128;SDS011;17777;48.770;8.944;2023-06-14T13:32:18;3.17;;;1.27;;
31128;SDS011;17777;48.770;8.944;2023-06-14T13:34:46;1.52;;;1.17;;
31128;SDS011;17777;48.770;8.944;2023-06-14T13:37:12;1.05;;;1.02;;
31128;SDS011;17777;48.770;8.944;2023-06-14T13:39:38;1.38;;;1.27;;
31128;SDS011;17777;48.770;8.944;2023-06-14T13:42:04;1.52;;;1.42;;
31128;SDS011;17777;48.770;8.944;2023-06-14T13:44:30;1.63;;;1.27;;
31128;SDS011;17777;48.770;8.944;2023-06-14T13:46:56;1.17;;;1.02;;
31128;SDS011;17777;48.770;8.944;2023-06-14T13:49:22;2.03;;;1.30;;
31128;SDS011;17777;48.770;8.944;2023-06-14T13:51:47;2.45;;;1.45;;
31128;SDS011;17777;48.770;8.944;2023-06-14T13:54:14;2.25;;;1.25;;
31128;SDS011;17777;48.770;8.944;2023-06-14T13:56:40;2.47;;;1.83;;
31128;SDS011;17777;48.770;8.944;2023-06-14T13:59:06;1.95;;;1.33;;
31128;SDS011;17777;48.770;8.944;2023-06-14T14:01:32;1.70;;;1.30;;
31128;SDS011;17777;48.770;8.944;2023-06-14T14:03:58;3.75;;;1.48;;
31128;SDS011;17777;48.770;8.944;2023-06-14T14:06:25;3.35;;;1.23;;
31128;SDS011;17777;48.770;8.944;2023-06-14T14:08:52;1.38;;;1.15;;
31128;SDS011;17777;48.770;8.944;2023-06-14T14:11:18;1.52;;;1.42;;
31128;SDS011;17777;48.770;8.944;2023-06-14T14:13:45;1.95;;;1.23;;
31128;SDS011;17777;48.770;8.944;2023-06-14T14:16:12;1.38;;;1.27;;
31128;SDS011;17777;48.770;8.944;2023-06-14T14:18:38;3.08;;;1.40;;
31128;SDS011;17777;48.770;8.944;2023-06-14T14:21:04;1.90;;;1.40;;
31128;SDS011;17777;48.770;8.944;2023-06-14T14:23:30;5.25;;;1.30;;
31128;SDS011;17777;48.770;8.944;2023-06-14T14:25:56;1.65;;;1.55;;
31128;SDS011;17777;48.770;8.944;2023-06-14T14:28:22;2.30;;;1.85;;
31128;SDS011;17777;48.770;8.944;2023-06-14T14:30:48;3.10;;;1.80;;
31128;SDS011;17777;48.770;8.944;2023-06-14T14:33:14;2.75;;;1.73;;
31128;SDS011;17777;48.770;8.944;2023-06-14T14:35:43;2.15;;;1.55;;
31128;SDS011;17777;48.770;8.944;2023-06-14T14:38:13;1.55;;;1.10;;
31128;SDS011;17777;48.770;8.944;2023-06-14T14:40:40;1.75;;;1.25;;
31128;SDS011;17777;48.770;8.944;2023-06-14T14:43:07;1.70;;;1.25;;
31128;SDS011;17777;48.770;8.944;2023-06-14T14:45:33;1.55;;;1.27;;
31128;SDS011;17777;48.770;8.944;2023-06-14T14:47:59;1.50;;;1.27;;
31128;SDS011;17777;48.770;8.944;2023-06-14T14:50:26;1.85;;;1.40;;
31128;SDS011;17777;48.770;8.944;2023-06-14T14:52:51;1.52;;;1.38;;
31128;SDS011;17777;48.770;8.944;2023-06-14T14:55:17;1.63;;;1.52;;
31128;SDS011;17777;48.770;8.944;2023-06-14T14:57:43;2.38;;;1.38;;
31128;SDS011;17777;48.770;8.944;2023-06-14T15:00:11;1.30;;;1.20;;
31128;SDS011;17777;48.770;8.944;2023-06-14T15:02:37;1.38;;;1.27;;
31128;SDS011;17777;48.770;8.944;2023-06-14T15:05:03;1.65;;;1.42;;
31128;SDS011;17777;48.770;8.944;2023-06-14T15:07:29;2.10;;;1.50;;
31128;SDS011;17777;48.770;8.944;2023-06-14T15:09:59;2.03;;;1.25;;
31128;SDS011;17777;48.770;8.944;2023-06-14T15:12:25;1.50;;;1.27;;
31128;SDS011;17777;48.770;8.944;2023-06-14T15:14:51;1.90;;;1.58;;
31128;SDS011;17777;48.770;8.944;2023-06-14T15:17:18;1.45;;;1.35;;